Time;durP1;ratioP1;P1;durP2;ratioP2;P2;SDS_P1;SDS_P2;PMS_P1;PMS_P2;Temp;Humidity;BMP_temperature;BMP_pressure;BME280_temperature;BME280_humidity;BME280_pressure;Samples;Min_cycle;Max_cycle;Signal;HPM_P1;HPM_P2
2022/09/07 00:01:46;;;;;;;2.08;1.98;;;;;;;;;;5013770;28;20214;-83
2022/09/07 00:04:14;;;;;;;2.38;2.25;;;;;;;;;;5014140;28;20219;-83
2022/09/07 00:06:43;;;;;;;3.05;2.47;;;;;;;;;;5014034;28;20203;-83
2022/09/07 00:09:10;;;;;;;2.45;2.22;;;;;;;;;;5014083;28;20199;-83
2022/09/07 00:11:38;;;;;;;2.85;2.65;;;;;;;;;;5013995;28;20203;-83
2022/09/07 00:14:06;;;;;;;2.45;2.30;;;;;;;;;;5013442;28;20226;-83
2022/09/07 00:16:34;;;;;;;2.80;2.60;;;;;;;;;;5013625;28;20203;-83
2022/09/07 00:19:04;;;;;;;2.33;2.13;;;;;;;;;;5013798;28;20717;-82
2022/09/07 00:21:32;;;;;;;2.50;2.40;;;;;;;;;;5013669;28;20199;-83
2022/09/07 00:24:01;;;;;;;2.05;1.95;;;;;;;;;;5013730;28;20254;-83
2022/09/07 00:26:31;;;;;;;2.38;2.17;;;;;;;;;;5013356;28;20203;-83
2022/09/07 00:29:00;;;;;;;2.78;2.58;;;;;;;;;;5013557;28;20861;-83
2022/09/07 00:31:29;;;;;;;2.50;2.40;;;;;;;;;;5013805;28;20555;-83
2022/09/07 00:34:00;;;;;;;2.22;2.03;;;;;;;;;;5013558;28;20950;-83
2022/09/07 00:36:27;;;;;;;2.30;2.10;;;;;;;;;;5012966;28;20261;-84
2022/09/07 00:38:55;;;;;;;2.05;1.95;;;;;;;;;;5013278;28;20277;-83
2022/09/07 00:41:24;;;;;;;2.33;2.22;;;;;;;;;;5013162;28;20234;-83
2022/09/07 00:43:54;;;;;;;2.78;2.17;;;;;;;;;;5013439;28;20219;-83
2022/09/07 00:46:24;;;;;;;2.35;2.15;;;;;;;;;;5013235;28;20632;-83
2022/09/07 00:48:57;;;;;;;1.80;1.70;;;;;;;;;;5013565;28;20195;-83
2022/09/07 00:51:32;;;;;;;2.30;2.13;;;;;;;;;;5013270;28;20671;-83
2022/09/07 00:54:04;;;;;;;2.67;2.47;;;;;;;;;;5013284;28;20230;-83
2022/09/07 00:56:38;;;;;;;2.25;2.15;;;;;;;;;;5013134;28;20234;-83
2022/09/07 00:59:07;;;;;;;1.70;1.60;;;;;;;;;;5013316;28;20258;-83
2022/09/07 01:01:34;;;;;;;1.98;1.88;;;;;;;;;;5012847;28;20246;-83
2022/09/07 01:04:03;;;;;;;1.92;1.83;;;;;;;;;;5012789;28;20227;-83
2022/09/07 01:06:34;;;;;;;1.80;1.70;;;;;;;;;;5012764;28;20260;-83
2022/09/07 01:09:05;;;;;;;1.92;1.83;;;;;;;;;;5013109;28;20199;-83
2022/09/07 01:11:35;;;;;;;1.83;1.73;;;;;;;;;;5012999;28;20265;-83
2022/09/07 01:14:04;;;;;;;1.45;1.35;;;;;;;;;;5012658;28;20231;-82
2022/09/07 01:16:46;;;;;;;1.60;1.50;;;;;;;;;;5012613;28;20261;-83
2022/09/07 01:20:07;;;;;;;1.80;1.70;;;;;;;;;;5012792;28;20223;-83
2022/09/07 01:23:04;;;;;;;1.35;1.30;;;;;;;;;;4992764;28;20284;-83
2022/09/07 01:25:43;;;;;;;1.60;1.50;;;;;;;;;;5013029;28;20281;-83
2022/09/07 01:28:16;;;;;;;1.50;1.40;;;;;;;;;;5012510;28;20433;-83
2022/09/07 01:30:49;;;;;;;1.55;1.50;;;;;;;;;;5012661;28;20607;-83
2022/09/07 01:33:41;;;;;;;1.58;1.48;;;;;;;;;;5012605;28;20198;-83
2022/09/07 01:36:20;;;;;;;1.70;1.60;;;;;;;;;;5012597;28;20198;-83
2022/09/07 01:38:51;;;;;;;1.67;1.58;;;;;;;;;;5012663;28;20222;-83
2022/09/07 01:41:25;;;;;;;1.65;1.60;;;;;;;;;;5012499;28;20207;-83
2022/09/07 01:43:59;;;;;;;2.13;1.92;;;;;;;;;;5012398;28;20710;-83
2022/09/07 01:46:30;;;;;;;1.60;1.50;;;;;;;;;;5011395;28;20222;-83
2022/09/07 01:49:03;;;;;;;1.63;1.52;;;;;;;;;;5012637;28;20253;-83
2022/09/07 01:51:34;;;;;;;2.60;2.40;;;;;;;;;;5012242;28;20198;-83
2022/09/07 01:54:09;;;;;;;2.17;1.98;;;;;;;;;;5011926;28;20227;-83
2022/09/07 01:56:39;;;;;;;1.67;1.58;;;;;;;;;;5012130;28;20198;-83
2022/09/07 01:59:14;;;;;;;1.67;1.58;;;;;;;;;;5012345;28;20258;-83
2022/09/07 02:01:46;;;;;;;2.00;1.90;;;;;;;;;;5012636;28;20577;-84
2022/09/07 02:04:17;;;;;;;1.80;1.70;;;;;;;;;;5012152;28;20222;-83
2022/09/07 02:06:49;;;;;;;2.22;1.40;;;;;;;;;;5011748;28;20207;-83
2022/09/07 02:09:25;;;;;;;1.70;1.60;;;;;;;;;;5012167;28;20683;-83
2022/09/07 02:11:53;;;;;;;1.88;1.77;;;;;;;;;;5011647;28;20238;-83
2022/09/07 02:14:27;;;;;;;1.80;1.70;;;;;;;;;;5011685;28;20312;-83
2022/09/07 02:17:00;;;;;;;1.60;1.50;;;;;;;;;;5011570;28;20226;-82
2022/09/07 02:19:30;;;;;;;2.40;2.17;;;;;;;;;;5012042;28;20230;-83
2022/09/07 02:22:01;;;;;;;1.90;1.80;;;;;;;;;;5012161;28;20211;-83
2022/09/07 02:24:34;;;;;;;1.70;1.60;;;;;;;;;;5012138;28;20230;-83
2022/09/07 02:27:06;;;;;;;1.88;1.77;;;;;;;;;;5011893;28;20226;-83
2022/09/07 02:29:36;;;;;;;1.70;1.60;;;;;;;;;;5012019;28;20264;-83
2022/09/07 02:32:04;;;;;;;1.45;1.35;;;;;;;;;;5011862;28;20202;-83
2022/09/07 02:34:32;;;;;;;1.63;1.55;;;;;;;;;;5012022;28;20251;-83
2022/09/07 02:37:02;;;;;;;1.80;1.70;;;;;;;;;;5011426;28;20243;-82
2022/09/07 02:39:30;;;;;;;1.73;1.63;;;;;;;;;;5011863;28;20763;-83
2022/09/07 02:41:58;;;;;;;1.88;1.77;;;;;;;;;;5011798;28;20262;-83
2022/09/07 02:44:30;;;;;;;2.08;1.95;;;;;;;;;;5011674;28;20305;-82
2022/09/07 02:47:14;;;;;;;2.53;2.42;;;;;;;;;;5011613;28;20206;-83
2022/09/07 02:50:04;;;;;;;4.18;3.88;;;;;;;;;;5012074;28;20199;-83
2022/09/07 02:52:41;;;;;;;3.90;3.33;;;;;;;;;;5011846;28;20282;-84
2022/09/07 02:55:19;;;;;;;3.05;2.85;;;;;;;;;;5011865;28;20246;-84
2022/09/07 02:57:53;;;;;;;3.60;3.10;;;;;;;;;;5012432;28;20253;-84
2022/09/07 03:00:24;;;;;;;3.40;2.53;;;;;;;;;;5015983;28;20648;-83
2022/09/07 03:03:00;;;;;;;4.65;3.05;;;;;;;;;;5015517;28;20671;-82
2022/09/07 03:05:33;;;;;;;3.40;3.10;;;;;;;;;;5015141;28;20707;-83
2022/09/07 03:08:04;;;;;;;3.35;2.88;;;;;;;;;;5015331;28;20183;-86
2022/09/07 03:10:32;;;;;;;3.00;2.42;;;;;;;;;;5014990;28;20199;-85
2022/09/07 03:12:59;;;;;;;2.75;2.55;;;;;;;;;;5015497;28;20207;-87
2022/09/07 03:15:28;;;;;;;4.53;2.33;;;;;;;;;;5015510;28;20699;-87
2022/09/07 03:17:57;;;;;;;2.72;2.22;;;;;;;;;;5015392;28;20207;-85
2022/09/07 03:20:25;;;;;;;3.13;2.17;;;;;;;;;;5015641;28;20230;-86
2022/09/07 03:22:53;;;;;;;2.33;2.13;;;;;;;;;;5015544;28;20207;-87
2022/09/07 03:25:21;;;;;;;1.85;1.75;;;;;;;;;;5015294;28;20281;-86
2022/09/07 03:27:49;;;;;;;2.55;2.35;;;;;;;;;;5015364;28;20199;-86
2022/09/07 03:30:17;;;;;;;2.63;2.42;;;;;;;;;;5015332;28;20203;-85
2022/09/07 03:32:44;;;;;;;2.40;2.08;;;;;;;;;;5015121;28;20675;-85
2022/09/07 03:35:14;;;;;;;1.75;1.65;;;;;;;;;;5014865;28;20590;-85
2022/09/07 03:37:41;;;;;;;2.13;1.80;;;;;;;;;;5014968;28;20717;-86
2022/09/07 03:40:12;;;;;;;2.58;2.25;;;;;;;;;;5015181;28;20329;-86
2022/09/07 03:42:40;;;;;;;2.53;2.17;;;;;;;;;;5015280;28;20249;-85
2022/09/07 03:45:10;;;;;;;3.10;2.42;;;;;;;;;;5015411;28;20695;-85
2022/09/07 03:47:38;;;;;;;2.20;2.00;;;;;;;;;;5015255;28;20825;-85
2022/09/07 03:50:07;;;;;;;2.03;1.90;;;;;;;;;;5015218;28;20261;-85
2022/09/07 03:52:36;;;;;;;3.38;2.10;;;;;;;;;;5014768;28;20199;-87
2022/09/07 03:55:05;;;;;;;3.00;2.00;;;;;;;;;;5014359;28;20258;-86
2022/09/07 03:57:39;;;;;;;7.65;2.10;;;;;;;;;;5014782;28;20203;-86
2022/09/07 04:00:08;;;;;;;1.80;1.70;;;;;;;;;;5015110;28;20265;-86
2022/09/07 04:02:35;;;;;;;2.28;1.80;;;;;;;;;;5014675;28;20199;-85
2022/09/07 04:05:04;;;;;;;1.55;1.45;;;;;;;;;;5014644;28;20699;-87
2022/09/07 04:07:31;;;;;;;1.58;1.48;;;;;;;;;;5014397;28;20273;-85
2022/09/07 04:10:00;;;;;;;1.80;1.70;;;;;;;;;;5013851;28;20686;-85
2022/09/07 04:12:28;;;;;;;1.90;1.80;;;;;;;;;;5015038;28;20235;-85
2022/09/07 04:14:56;;;;;;;2.22;1.60;;;;;;;;;;5014363;28;20273;-86
2022/09/07 04:17:24;;;;;;;7.95;2.42;;;;;;;;;;5014639;28;20199;-85
2022/09/07 04:19:51;;;;;;;3.03;1.77;;;;;;;;;;5014762;28;20245;-85
2022/09/07 04:22:19;;;;;;;1.67;1.50;;;;;;;;;;5014220;28;20298;-85
2022/09/07 04:24:47;;;;;;;1.40;1.30;;;;;;;;;;5014853;28;20281;-86
2022/09/07 04:27:16;;;;;;;0.95;0.95;;;;;;;;;;5014468;28;20334;-85
2022/09/07 04:29:43;;;;;;;1.02;1.02;;;;;;;;;;5014747;28;20215;-85
2022/09/07 04:32:11;;;;;;;1.10;1.10;;;;;;;;;;5014127;28;20211;-85
2022/09/07 04:34:40;;;;;;;2.00;1.90;;;;;;;;;;5013992;28;20215;-86
2022/09/07 04:37:08;;;;;;;1.30;1.23;;;;;;;;;;5013878;28;20250;-85
2022/09/07 04:39:36;;;;;;;3.33;1.45;;;;;;;;;;5014581;28;20626;-84
2022/09/07 04:42:04;;;;;;;1.10;1.10;;;;;;;;;;5013838;28;20290;-85
2022/09/07 04:44:33;;;;;;;0.98;0.90;;;;;;;;;;5013937;28;20250;-86
2022/09/07 04:47:07;;;;;;;2.35;1.45;;;;;;;;;;5015042;28;20238;-85
2022/09/07 04:49:35;;;;;;;0.98;0.95;;;;;;;;;;5017115;28;20246;-85
2022/09/07 04:52:03;;;;;;;0.90;0.90;;;;;;;;;;5013691;28;20576;-86
2022/09/07 04:54:31;;;;;;;0.70;0.68;;;;;;;;;;5013426;28;20313;-85
2022/09/07 04:56:58;;;;;;;0.80;0.80;;;;;;;;;;5013920;28;20199;-86
2022/09/07 04:59:26;;;;;;;0.57;0.57;;;;;;;;;;5013867;28;20195;-85
2022/09/07 05:01:55;;;;;;;1.60;1.40;;;;;;;;;;5013831;28;20277;-85
2022/09/07 05:04:23;;;;;;;1.05;1.05;;;;;;;;;;5013968;28;20492;-85
2022/09/07 05:06:52;;;;;;;1.25;0.90;;;;;;;;;;5013425;28;20265;-85
2022/09/07 05:09:20;;;;;;;1.00;0.88;;;;;;;;;;5014234;28;20273;-85
2022/09/07 05:11:48;;;;;;;0.98;0.98;;;;;;;;;;5013717;28;20203;-85
2022/09/07 05:14:15;;;;;;;0.80;0.80;;;;;;;;;;5013829;28;20226;-79
2022/09/07 05:16:43;;;;;;;0.70;0.70;;;;;;;;;;5014066;28;20238;-78
2022/09/07 05:19:13;;;;;;;0.85;0.85;;;;;;;;;;5014202;28;20234;-78
2022/09/07 05:21:40;;;;;;;0.77;0.77;;;;;;;;;;5014417;28;20219;-79
2022/09/07 05:24:09;;;;;;;1.55;1.00;;;;;;;;;;5014561;28;20261;-78
2022/09/07 05:26:39;;;;;;;1.00;1.00;;;;;;;;;;5013529;28;20238;-79
2022/09/07 05:29:07;;;;;;;2.35;1.20;;;;;;;;;;5014032;28;20282;-78
2022/09/07 05:31:35;;;;;;;0.93;0.93;;;;;;;;;;5014859;28;20241;-78
2022/09/07 05:34:02;;;;;;;1.00;1.00;;;;;;;;;;5013915;28;20770;-78
2022/09/07 05:36:32;;;;;;;0.70;0.70;;;;;;;;;;5014349;28;20209;-78
2022/09/07 05:38:59;;;;;;;1.30;1.00;;;;;;;;;;5014435;28;20269;-78
2022/09/07 05:41:28;;;;;;;0.90;0.90;;;;;;;;;;5015042;28;20258;-81
2022/09/07 05:43:56;;;;;;;0.80;0.80;;;;;;;;;;5014868;28;20227;-78
2022/09/07 05:46:24;;;;;;;1.15;1.05;;;;;;;;;;5014897;28;20322;-78
2022/09/07 05:48:51;;;;;;;0.73;0.73;;;;;;;;;;5015064;28;20206;-78
2022/09/07 05:51:19;;;;;;;0.80;0.80;;;;;;;;;;5014363;28;20234;-79
2022/09/07 05:53:49;;;;;;;0.98;0.98;;;;;;;;;;5013845;28;20258;-78
2022/09/07 05:56:17;;;;;;;1.27;0.93;;;;;;;;;;5014232;28;20260;-77
2022/09/07 05:58:49;;;;;;;1.08;1.08;;;;;;;;;;5013615;28;20207;-79
2022/09/07 06:01:16;;;;;;;1.83;1.00;;;;;;;;;;5013748;28;20258;-78
2022/09/07 06:03:44;;;;;;;0.95;0.95;;;;;;;;;;5014059;28;20223;-78
2022/09/07 06:06:15;;;;;;;1.40;1.30;;;;;;;;;;5013271;28;20234;-78
2022/09/07 06:08:50;;;;;;;1.40;1.30;;;;;;;;;;5013785;28;20222;-77
2022/09/07 06:11:19;;;;;;;1.00;1.00;;;;;;;;;;5013547;28;20708;-78
2022/09/07 06:13:47;;;;;;;1.20;1.10;;;;;;;;;;5013338;28;20227;-78
2022/09/07 06:16:17;;;;;;;1.30;1.20;;;;;;;;;;5013248;28;20230;-77
2022/09/07 06:18:46;;;;;;;1.38;1.08;;;;;;;;;;5014108;28;20214;-78
2022/09/07 06:21:16;;;;;;;1.13;1.02;;;;;;;;;;5013687;28;20233;-78
2022/09/07 06:23:45;;;;;;;1.00;1.00;;;;;;;;;;5013419;28;20757;-78
2022/09/07 06:26:15;;;;;;;1.02;1.02;;;;;;;;;;5014324;28;20223;-79
2022/09/07 06:28:45;;;;;;;1.20;1.10;;;;;;;;;;5014202;28;20207;-78
2022/09/07 06:31:14;;;;;;;1.00;1.00;;;;;;;;;;5013432;28;20237;-77
2022/09/07 06:33:43;;;;;;;1.20;1.20;;;;;;;;;;5014993;28;20731;-77
2022/09/07 06:36:14;;;;;;;1.50;1.40;;;;;;;;;;5017127;28;20205;-78
2022/09/07 06:38:42;;;;;;;1.70;1.60;;;;;;;;;;5017375;28;20586;-78
2022/09/07 06:41:15;;;;;;;1.10;1.10;;;;;;;;;;5016684;28;20238;-77
2022/09/07 06:43:42;;;;;;;1.60;1.50;;;;;;;;;;5017664;28;20758;-78
2022/09/07 06:46:10;;;;;;;1.40;1.30;;;;;;;;;;5017214;28;20238;-77
2022/09/07 06:48:38;;;;;;;1.20;1.20;;;;;;;;;;5016703;28;20246;-77
2022/09/07 06:51:09;;;;;;;1.30;1.30;;;;;;;;;;5016360;28;20246;-77
2022/09/07 06:53:37;;;;;;;1.15;1.13;;;;;;;;;;5016606;28;20261;-77
2022/09/07 06:56:08;;;;;;;2.08;1.33;;;;;;;;;;5015996;28;20296;-78
2022/09/07 06:58:37;;;;;;;1.25;1.25;;;;;;;;;;5016076;28;20285;-78
2022/09/07 07:01:07;;;;;;;0.90;0.90;;;;;;;;;;5016432;28;20238;-78
2022/09/07 07:03:34;;;;;;;1.30;1.30;;;;;;;;;;5015984;28;20259;-78
2022/09/07 07:06:02;;;;;;;2.05;1.35;;;;;;;;;;5016056;28;20230;-78
2022/09/07 07:08:29;;;;;;;2.00;1.90;;;;;;;;;;5015833;28;20706;-79
2022/09/07 07:11:01;;;;;;;3.78;1.50;;;;;;;;;;5015954;28;20238;-79
2022/09/07 07:13:29;;;;;;;2.80;2.30;;;;;;;;;;5015947;28;20241;-78
2022/09/07 07:16:04;;;;;;;1.48;1.40;;;;;;;;;;5016045;28;20207;-77
2022/09/07 07:18:32;;;;;;;1.50;1.40;;;;;;;;;;5015554;28;20207;-78
2022/09/07 07:21:04;;;;;;;1.20;1.20;;;;;;;;;;5015767;28;20235;-78
2022/09/07 07:23:33;;;;;;;1.30;1.20;;;;;;;;;;5015894;28;20258;-78
2022/09/07 07:26:03;;;;;;;1.50;1.40;;;;;;;;;;5015926;28;20322;-77
2022/09/07 07:28:31;;;;;;;1.50;1.20;;;;;;;;;;5015469;28;20265;-78
2022/09/07 07:31:02;;;;;;;1.38;1.38;;;;;;;;;;5015473;28;20245;-78
2022/09/07 07:33:31;;;;;;;0.98;0.90;;;;;;;;;;5015801;28;20257;-80
2022/09/07 07:36:09;;;;;;;2.17;1.98;;;;;;;;;;5015198;28;20246;-78
2022/09/07 07:38:37;;;;;;;3.00;1.27;;;;;;;;;;5014858;28;20713;-79
2022/09/07 07:41:05;;;;;;;1.55;1.45;;;;;;;;;;5014556;28;20234;-78
2022/09/07 07:43:33;;;;;;;2.95;1.42;;;;;;;;;;5014648;28;20608;-79
2022/09/07 07:46:02;;;;;;;1.30;1.10;;;;;;;;;;5013603;28;20222;-78
2022/09/07 07:48:33;;;;;;;1.23;1.20;;;;;;;;;;5014938;28;20199;-79
2022/09/07 07:51:02;;;;;;;2.35;1.60;;;;;;;;;;5014937;28;20234;-79
2022/09/07 07:53:32;;;;;;;1.67;1.50;;;;;;;;;;5014700;28;20238;-79
2022/09/07 07:56:00;;;;;;;1.60;1.50;;;;;;;;;;5014611;28;20717;-80
2022/09/07 07:58:28;;;;;;;1.98;1.80;;;;;;;;;;5014453;28;20203;-79
2022/09/07 08:01:00;;;;;;;1.40;1.30;;;;;;;;;;5015197;28;20235;-79
2022/09/07 08:03:29;;;;;;;2.60;1.38;;;;;;;;;;5015160;28;20258;-80
2022/09/07 08:06:03;;;;;;;1.55;1.45;;;;;;;;;;5015542;28;20230;-79
2022/09/07 08:08:31;;;;;;;1.70;1.60;;;;;;;;;;5015314;28;20199;-81
2022/09/07 08:10:59;;;;;;;1.73;1.63;;;;;;;;;;5015809;28;20202;-80
2022/09/07 08:13:31;;;;;;;3.13;1.75;;;;;;;;;;5013610;28;20238;-81
2022/09/07 08:15:59;;;;;;;1.90;1.80;;;;;;;;;;5014709;28;20250;-82
2022/09/07 08:18:28;;;;;;;3.13;1.20;;;;;;;;;;5014521;28;20218;-81
2022/09/07 08:21:01;;;;;;;1.73;1.63;;;;;;;;;;5014871;28;20209;-81
2022/09/07 08:23:28;;;;;;;1.60;1.50;;;;;;;;;;5014774;28;20321;-81
2022/09/07 08:25:58;;;;;;;2.13;1.70;;;;;;;;;;5014969;28;20238;-81
2022/09/07 08:28:27;;;;;;;2.15;1.95;;;;;;;;;;5014787;28;20249;-80
2022/09/07 08:30:54;;;;;;;1.90;1.80;;;;;;;;;;5015432;28;20215;-81
2022/09/07 08:33:22;;;;;;;2.72;2.53;;;;;;;;;;5016034;28;20202;-82
2022/09/07 08:35:59;;;;;;;1.90;1.80;;;;;;;;;;5014961;28;20203;-81
2022/09/07 08:38:27;;;;;;;2.42;2.22;;;;;;;;;;5015085;28;20207;-81
2022/09/07 08:40:54;;;;;;;2.78;2.58;;;;;;;;;;5014892;28;20577;-81
2022/09/07 08:43:33;;;;;;;2.25;2.05;;;;;;;;;;5013736;28;20219;-81
2022/09/07 08:46:06;;;;;;;1.88;1.77;;;;;;;;;;5014600;28;20217;-81
2022/09/07 08:48:35;;;;;;;2.10;2.00;;;;;;;;;;5014046;28;20257;-82
2022/09/07 08:51:11;;;;;;;2.50;2.30;;;;;;;;;;5014331;28;20207;-80
2022/09/07 08:53:45;;;;;;;3.22;2.70;;;;;;;;;;5014077;28;20213;-82
2022/09/07 08:56:17;;;;;;;2.45;2.30;;;;;;;;;;5014683;28;20206;-82
2022/09/07 08:58:47;;;;;;;2.15;2.05;;;;;;;;;;5014327;28;20663;-82
2022/09/07 09:01:16;;;;;;;2.17;2.00;;;;;;;;;;5012108;28;20226;-81
2022/09/07 09:03:44;;;;;;;2.33;1.83;;;;;;;;;;5012030;28;20223;-82
2022/09/07 09:06:21;;;;;;;1.88;1.77;;;;;;;;;;5013042;28;20281;-80
2022/09/07 09:09:06;;;;;;;2.30;2.10;;;;;;;;;;5012565;28;20671;-83
2022/09/07 09:11:44;;;;;;;2.30;2.20;;;;;;;;;;5013663;28;20233;-83
2022/09/07 09:14:21;;;;;;;2.03;1.92;;;;;;;;;;5013824;28;20222;-81
2022/09/07 09:16:51;;;;;;;1.58;1.48;;;;;;;;;;5012937;28;20293;-81
2022/09/07 09:19:49;;;;;;;1.90;1.80;;;;;;;;;;5013442;28;20290;-81
2022/09/07 09:22:20;;;;;;;1.92;1.83;;;;;;;;;;5013217;28;20590;-81
2022/09/07 09:24:51;;;;;;;2.03;1.92;;;;;;;;;;5013181;28;20227;-81
2022/09/07 09:27:19;;;;;;;1.77;1.67;;;;;;;;;;5013062;28;20667;-81
2022/09/07 09:29:46;;;;;;;2.15;1.83;;;;;;;;;;5013152;28;20203;-81
2022/09/07 09:32:36;;;;;;;1.60;1.50;;;;;;;;;;5012610;28;20205;-81
2022/09/07 09:35:13;;;;;;;1.88;1.77;;;;;;;;;;5013128;28;20214;-81
2022/09/07 09:37:43;;;;;;;1.83;1.73;;;;;;;;;;5012776;28;20756;-81
2022/09/07 09:40:27;;;;;;;2.75;1.65;;;;;;;;;;5013174;28;20219;-80
2022/09/07 09:43:03;;;;;;;2.65;1.70;;;;;;;;;;5012945;28;20199;-82
2022/09/07 09:45:34;;;;;;;2.88;2.60;;;;;;;;;;5012842;28;20223;-82
2022/09/07 09:48:08;;;;;;;1.70;1.60;;;;;;;;;;5012930;28;20203;-81
2022/09/07 09:50:39;;;;;;;1.95;1.48;;;;;;;;;;5013366;28;20198;-82
2022/09/07 09:53:24;;;;;;;1.40;1.30;;;;;;;;;;5013293;28;20567;-83
2022/09/07 09:55:52;;;;;;;1.88;1.77;;;;;;;;;;5013887;28;20206;-83
2022/09/07 09:58:32;;;;;;;1.55;1.45;;;;;;;;;;5013706;28;20205;-82
2022/09/07 10:01:01;;;;;;;1.20;1.20;;;;;;;;;;5013182;28;20592;-82
2022/09/07 10:03:31;;;;;;;1.58;1.48;;;;;;;;;;5013055;28;20726;-82
2022/09/07 10:05:59;;;;;;;1.85;1.75;;;;;;;;;;5012867;28;20238;-83
2022/09/07 10:08:30;;;;;;;1.55;1.45;;;;;;;;;;5012186;28;20203;-82
2022/09/07 10:11:00;;;;;;;2.03;1.92;;;;;;;;;;5013477;28;20276;-82
2022/09/07 10:13:33;;;;;;;1.67;1.58;;;;;;;;;;5013235;28;20203;-82
2022/09/07 10:16:04;;;;;;;1.88;1.77;;;;;;;;;;5013500;28;20230;-82
2022/09/07 10:18:35;;;;;;;2.65;2.17;;;;;;;;;;5014801;28;20199;-84
2022/09/07 10:21:24;;;;;;;2.05;1.42;;;;;;;;;;5014546;28;20231;-84
2022/09/07 10:23:59;;;;;;;2.08;1.83;;;;;;;;;;5013488;28;20238;-83
2022/09/07 10:26:32;;;;;;;1.80;1.67;;;;;;;;;;5013781;28;20238;-83
2022/09/07 10:29:15;;;;;;;1.67;1.58;;;;;;;;;;5013727;28;20663;-82
2022/09/07 10:32:19;;;;;;;1.60;1.50;;;;;;;;;;5013035;28;20210;-82
2022/09/07 10:34:58;;;;;;;1.35;1.25;;;;;;;;;;5013003;28;20230;-82
2022/09/07 10:37:36;;;;;;;2.17;1.95;;;;;;;;;;5012801;28;20592;-83
2022/09/07 10:40:20;;;;;;;2.90;1.27;;;;;;;;;;5013134;28;20586;-83
2022/09/07 10:42:56;;;;;;;1.17;1.17;;;;;;;;;;5012986;28;20214;-83
2022/09/07 10:45:31;;;;;;;1.52;1.20;;;;;;;;;;5013101;28;20277;-83
2022/09/07 10:48:04;;;;;;;3.80;1.77;;;;;;;;;;5012794;28;20209;-82
2022/09/07 10:50:38;;;;;;;1.67;1.58;;;;;;;;;;5012726;28;20207;-83
2022/09/07 10:53:22;;;;;;;1.50;0.93;;;;;;;;;;5013072;28;20214;-82
2022/09/07 10:56:01;;;;;;;2.40;2.20;;;;;;;;;;5013232;28;20702;-83
2022/09/07 10:58:36;;;;;;;0.98;0.98;;;;;;;;;;5012466;28;20586;-82
2022/09/07 11:01:13;;;;;;;1.58;1.38;;;;;;;;;;5012667;28;20302;-83
2022/09/07 11:04:02;;;;;;;1.45;1.20;;;;;;;;;;5012642;28;20222;-83
2022/09/07 11:06:35;;;;;;;1.08;1.08;;;;;;;;;;5012122;28;20215;-82
2022/09/07 11:09:39;;;;;;;1.55;1.45;;;;;;;;;;5011774;28;20686;-82
2022/09/07 11:12:14;;;;;;;1.70;1.60;;;;;;;;;;5003430;28;20197;-83
2022/09/07 11:14:45;;;;;;;0.93;0.93;;;;;;;;;;5012121;28;20575;-81
2022/09/07 11:17:17;;;;;;;1.45;1.35;;;;;;;;;;5012378;28;20217;-82
2022/09/07 11:19:51;;;;;;;1.45;1.13;;;;;;;;;;5014609;28;20203;-83
2022/09/07 11:22:32;;;;;;;1.58;1.48;;;;;;;;;;5016590;28;20216;-83
2022/09/07 11:25:07;;;;;;;1.30;1.30;;;;;;;;;;5015780;28;20703;-83
2022/09/07 11:27:43;;;;;;;1.70;1.10;;;;;;;;;;5015413;28;20209;-82
2022/09/07 11:30:19;;;;;;;1.58;1.48;;;;;;;;;;5015190;28;20202;-83
2022/09/07 11:32:58;;;;;;;1.33;1.25;;;;;;;;;;5015082;28;20213;-82
2022/09/07 11:35:39;;;;;;;1.35;1.25;;;;;;;;;;5015635;28;20219;-83
2022/09/07 11:38:19;;;;;;;1.02;1.02;;;;;;;;;;5015212;28;20741;-82
2022/09/07 11:41:06;;;;;;;1.50;1.40;;;;;;;;;;5015609;28;20213;-82
2022/09/07 11:43:40;;;;;;;1.48;1.38;;;;;;;;;;5015394;28;20583;-82
2022/09/07 11:46:13;;;;;;;1.42;1.33;;;;;;;;;;5016045;28;20231;-83
2022/09/07 11:48:43;;;;;;;1.58;1.35;;;;;;;;;;5015756;28;20213;-83
2022/09/07 11:51:18;;;;;;;1.38;1.27;;;;;;;;;;5015507;28;20586;-83
2022/09/07 11:53:51;;;;;;;3.85;2.00;;;;;;;;;;5015161;28;20237;-83
2022/09/07 11:56:25;;;;;;;1.10;1.08;;;;;;;;;;5014520;28;20746;-83
2022/09/07 11:59:23;;;;;;;1.40;1.30;;;;;;;;;;5015322;28;20682;-83
2022/09/07 12:02:05;;;;;;;0.88;0.88;;;;;;;;;;5014675;28;20215;-83
2022/09/07 12:04:49;;;;;;;2.75;1.33;;;;;;;;;;5015265;28;20226;-82
2022/09/07 12:08:07;;;;;;;1.20;1.20;;;;;;;;;;5014545;28;20209;-82
2022/09/07 12:11:20;;;;;;;1.60;1.50;;;;;;;;;;5014905;28;20211;-83
2022/09/07 12:14:08;;;;;;;1.17;1.17;;;;;;;;;;4973519;28;20315;-83
2022/09/07 12:16:55;;;;;;;1.48;1.35;;;;;;;;;;4973166;28;20715;-83
2022/09/07 12:19:24;;;;;;;1.13;1.02;;;;;;;;;;5006373;28;20199;-83
2022/09/07 12:21:57;;;;;;;1.20;1.10;;;;;;;;;;5014170;28;20202;-83
2022/09/07 12:24:43;;;;;;;1.83;1.13;;;;;;;;;;5014066;28;20226;-83
2022/09/07 12:27:39;;;;;;;1.05;1.05;;;;;;;;;;5014095;28;20679;-82
2022/09/07 12:30:52;;;;;;;1.45;1.35;;;;;;;;;;5004917;28;20586;-83
2022/09/07 12:33:31;;;;;;;0.90;0.90;;;;;;;;;;4979566;28;20202;-82
2022/09/07 12:35:59;;;;;;;2.28;1.52;;;;;;;;;;5014340;28;20634;-82
2022/09/07 12:39:18;;;;;;;1.00;1.00;;;;;;;;;;5013465;28;20747;-81
2022/09/07 12:41:49;;;;;;;0.93;0.93;;;;;;;;;;5014769;28;20210;-81
2022/09/07 12:44:23;;;;;;;1.30;1.20;;;;;;;;;;5014245;28;20222;-82
2022/09/07 12:46:57;;;;;;;1.65;1.55;;;;;;;;;;5014497;28;20226;-83
2022/09/07 12:50:16;;;;;;;3.25;1.30;;;;;;;;;;5014978;28;20205;-82
2022/09/07 12:52:50;;;;;;;1.75;1.02;;;;;;;;;;5014237;28;20206;-82
2022/09/07 12:56:00;;;;;;;1.10;1.10;;;;;;;;;;5014268;28;20737;-82
2022/09/07 12:58:39;;;;;;;1.10;1.00;;;;;;;;;;5002168;28;20202;-82
2022/09/07 13:01:27;;;;;;;0.90;0.90;;;;;;;;;;5014635;28;20584;-82
2022/09/07 13:04:12;;;;;;;1.20;1.10;;;;;;;;;;5014188;28;20230;-83
2022/09/07 13:07:07;;;;;;;1.10;1.10;;;;;;;;;;5014223;28;20229;-82
2022/09/07 13:09:37;;;;;;;1.95;1.48;;;;;;;;;;5014304;28;20754;-82
2022/09/07 13:12:24;;;;;;;0.90;0.90;;;;;;;;;;5013623;28;20603;-82
2022/09/07 13:14:54;;;;;;;0.90;0.90;;;;;;;;;;5013665;28;20251;-81
2022/09/07 13:17:41;;;;;;;0.90;0.90;;;;;;;;;;5013102;28;20644;-82
2022/09/07 13:20:29;;;;;;;1.15;1.15;;;;;;;;;;5013921;28;20302;-81
2022/09/07 13:23:29;;;;;;;1.10;1.00;;;;;;;;;;5013656;28;20217;-82
2022/09/07 13:26:00;;;;;;;2.25;1.33;;;;;;;;;;5013555;28;20751;-81
2022/09/07 13:28:54;;;;;;;1.00;1.00;;;;;;;;;;5013557;28;20293;-83
2022/09/07 13:31:40;;;;;;;0.90;0.90;;;;;;;;;;5014101;28;20207;-82
2022/09/07 13:35:03;;;;;;;0.90;0.90;;;;;;;;;;5013561;28;20227;-82
2022/09/07 13:37:35;;;;;;;1.02;1.02;;;;;;;;;;4974751;28;20706;-81
2022/09/07 13:40:10;;;;;;;1.40;1.30;;;;;;;;;;5013486;28;20203;-81
2022/09/07 13:42:38;;;;;;;1.17;0.90;;;;;;;;;;5013016;28;20217;-81
2022/09/07 13:45:26;;;;;;;1.02;1.02;;;;;;;;;;5012996;28;20219;-81
2022/09/07 13:48:00;;;;;;;1.00;1.00;;;;;;;;;;5012553;28;20207;-81
2022/09/07 13:50:42;;;;;;;0.95;0.85;;;;;;;;;;5012889;28;20604;-80
2022/09/07 13:53:33;;;;;;;1.10;1.10;;;;;;;;;;5012620;28;20297;-81
2022/09/07 13:56:19;;;;;;;1.13;1.13;;;;;;;;;;5012463;28;20685;-80
2022/09/07 13:58:50;;;;;;;1.00;1.00;;;;;;;;;;5012729;28;20207;-81
2022/09/07 14:01:21;;;;;;;1.13;1.00;;;;;;;;;;5012783;28;20727;-80
2022/09/07 14:03:52;;;;;;;1.40;1.05;;;;;;;;;;5012994;28;20227;-85
2022/09/07 14:06:33;;;;;;;1.20;1.10;;;;;;;;;;5012825;28;20601;-80
2022/09/07 14:09:04;;;;;;;1.90;1.65;;;;;;;;;;5013214;28;20581;-81
2022/09/07 14:11:42;;;;;;;1.23;1.00;;;;;;;;;;5012984;28;20230;-82
2022/09/07 14:14:15;;;;;;;1.20;1.10;;;;;;;;;;5013125;28;20226;-81
2022/09/07 14:16:45;;;;;;;1.42;1.33;;;;;;;;;;5007455;28;20302;-81
2022/09/07 14:19:17;;;;;;;1.10;1.00;;;;;;;;;;5012041;28;20217;-81
2022/09/07 14:21:52;;;;;;;1.30;1.20;;;;;;;;;;5012613;28;20203;-80
2022/09/07 14:24:27;;;;;;;2.42;1.50;;;;;;;;;;5012597;28;20223;-80
2022/09/07 14:26:56;;;;;;;1.02;1.02;;;;;;;;;;5012401;28;20218;-81
2022/09/07 14:29:28;;;;;;;1.15;0.93;;;;;;;;;;5009199;28;20205;-81
2022/09/07 14:31:57;;;;;;;0.85;0.85;;;;;;;;;;5012231;28;20207;-86
2022/09/07 14:34:28;;;;;;;1.05;0.98;;;;;;;;;;5011831;28;20699;-80
2022/09/07 14:36:58;;;;;;;2.83;1.00;;;;;;;;;;5011870;28;20203;-80
2022/09/07 14:39:28;;;;;;;1.10;1.10;;;;;;;;;;5012306;28;20198;-80
2022/09/07 14:41:58;;;;;;;1.00;1.00;;;;;;;;;;5012183;28;20646;-80
2022/09/07 14:44:31;;;;;;;1.02;1.00;;;;;;;;;;5011957;28;20222;-80
2022/09/07 14:47:02;;;;;;;1.02;1.02;;;;;;;;;;5011232;28;20231;-79
2022/09/07 14:49:30;;;;;;;0.82;0.82;;;;;;;;;;5011744;28;20214;-79
2022/09/07 14:51:58;;;;;;;1.05;0.98;;;;;;;;;;5011914;28;20206;-80
2022/09/07 14:54:28;;;;;;;2.47;1.33;;;;;;;;;;5013227;28;20271;-79
2022/09/07 14:57:06;;;;;;;1.70;1.60;;;;;;;;;;5015438;28;20203;-80
2022/09/07 14:59:41;;;;;;;5.70;1.92;;;;;;;;;;5016079;28;20202;-80
2022/09/07 15:02:35;;;;;;;4.13;1.20;;;;;;;;;;5015841;28;20212;-80
2022/09/07 15:05:22;;;;;;;1.33;1.30;;;;;;;;;;5015799;28;20222;-80
2022/09/07 15:07:52;;;;;;;1.20;1.17;;;;;;;;;;4995486;28;20699;-79
2022/09/07 15:10:39;;;;;;;1.00;1.00;;;;;;;;;;4998121;28;20582;-80
2022/09/07 15:13:25;;;;;;;1.27;1.17;;;;;;;;;;5015854;28;20199;-79
2022/09/07 15:16:00;;;;;;;1.00;1.00;;;;;;;;;;5015544;28;20694;-80
2022/09/07 15:18:53;;;;;;;1.25;1.15;;;;;;;;;;5015497;28;20206;-79
2022/09/07 15:21:22;;;;;;;1.85;1.02;;;;;;;;;;5015794;28;20248;-79
2022/09/07 15:23:50;;;;;;;0.98;0.98;;;;;;;;;;4995703;28;20318;-80